createdAt,value
2019-05-23T00:01:19.938Z,95.41
2019-05-23T00:03:52.706Z,95.41
2019-05-23T00:06:23.765Z,95.89
2019-05-23T00:08:52.628Z,95.00
2019-05-23T00:11:30.529Z,94.63
2019-05-23T00:14:01.674Z,93.90
2019-05-23T00:16:31.969Z,94.78
2019-05-23T00:19:02.715Z,95.65
2019-05-23T00:21:33.000Z,95.83
2019-05-23T00:24:04.080Z,95.82
2019-05-23T00:26:34.230Z,96.44
2019-05-23T00:29:09.967Z,96.60
2019-05-23T00:31:38.563Z,96.53
2019-05-23T00:34:09.537Z,96.22
2019-05-23T00:36:38.143Z,95.97
2019-05-23T00:39:09.112Z,96.27
2019-05-23T00:41:39.866Z,96.20
2019-05-23T00:44:09.032Z,96.29
2019-05-23T00:46:37.947Z,95.79
2019-05-23T00:49:08.290Z,95.70
2019-05-23T00:51:36.999Z,96.27
2019-05-23T00:54:06.418Z,94.79
2019-05-23T00:56:37.270Z,94.80
2019-05-23T00:59:06.034Z,95.11
2019-05-23T01:01:34.938Z,95.40
2019-05-23T01:04:03.906Z,95.29
2019-05-23T01:06:33.516Z,95.26
2019-05-23T01:09:03.336Z,95.56
2019-05-23T01:11:33.282Z,96.13
2019-05-23T01:14:02.181Z,96.53
2019-05-23T01:16:32.855Z,96.27
2019-05-23T01:19:01.864Z,96.13
2019-05-23T01:21:51.060Z,96.97
2019-05-23T01:24:23.600Z,96.65
2019-05-23T01:26:52.690Z,95.96
2019-05-23T01:29:22.211Z,95.29
2019-05-23T01:31:52.429Z,95.17
2019-05-23T01:34:22.098Z,95.59
2019-05-23T01:36:51.195Z,94.81
2019-05-23T01:39:19.772Z,95.75
2019-05-23T01:41:48.454Z,96.29
2019-05-23T01:44:17.935Z,97.00
2019-05-23T01:46:46.625Z,96.25
2019-05-23T01:49:15.368Z,95.75
2019-05-23T01:51:44.647Z,95.14
2019-05-23T01:54:13.587Z,94.93
2019-05-23T01:56:42.660Z,96.29
2019-05-23T01:59:11.764Z,96.61
2019-05-23T02:01:41.712Z,97.34
2019-05-23T02:04:10.247Z,97.29
2019-05-23T02:06:39.274Z,96.14
2019-05-23T02:09:09.315Z,96.19
2019-05-23T02:11:37.929Z,97.04
2019-05-23T02:14:07.991Z,97.32
2019-05-23T02:16:37.346Z,97.78
2019-05-23T02:19:07.020Z,97.63
2019-05-23T02:21:36.126Z,96.89
2019-05-23T02:24:06.834Z,96.82
2019-05-23T02:26:35.805Z,96.45
2019-05-23T02:29:05.099Z,97.29
2019-05-23T02:31:34.346Z,97.22
2019-05-23T02:34:03.023Z,97.64
2019-05-23T02:36:32.432Z,96.92
2019-05-23T02:39:18.920Z,96.98
2019-05-23T02:41:51.870Z,96.14
2019-05-23T02:44:25.296Z,97.18
2019-05-23T02:46:56.555Z,98.55
2019-05-23T02:49:31.427Z,98.53
2019-05-23T02:52:03.121Z,99.16
2019-05-23T02:54:36.958Z,99.18
2019-05-23T02:57:04.749Z,98.21
2019-05-23T02:59:48.583Z,97.74
2019-05-23T03:02:40.018Z,98.15
2019-05-23T03:05:11.190Z,98.01
2019-05-23T03:07:42.027Z,98.44
2019-05-23T03:10:13.332Z,98.59
2019-05-23T03:12:43.837Z,98.43
2019-05-23T03:15:14.769Z,98.18
2019-05-23T03:17:47.313Z,98.34
2019-05-23T03:20:16.455Z,99.31
2019-05-23T03:22:50.772Z,98.98
2019-05-23T03:25:39.236Z,98.46
2019-05-23T03:28:09.919Z,98.06
2019-05-23T03:30:40.372Z,99.18
2019-05-23T03:33:13.237Z,99.03
2019-05-23T03:35:46.464Z,99.03
2019-05-23T03:38:15.523Z,98.70
2019-05-23T03:40:44.417Z,99.42
2019-05-23T03:43:13.585Z,99.80
2019-05-23T03:45:45.520Z,99.92
2019-05-23T03:48:14.016Z,99.42
2019-05-23T03:50:44.411Z,99.33
2019-05-23T03:53:12.936Z,98.78
2019-05-23T03:55:42.745Z,98.28
2019-05-23T03:58:12.854Z,98.20
2019-05-23T04:00:43.016Z,98.69
2019-05-23T04:03:11.942Z,98.39
2019-05-23T04:05:41.399Z,98.39
2019-05-23T04:08:10.938Z,98.68
2019-05-23T04:10:39.481Z,98.21
2019-05-23T04:13:08.731Z,98.33
2019-05-23T04:15:37.866Z,98.50
2019-05-23T04:18:06.625Z,98.76
2019-05-23T04:20:35.138Z,99.05
2019-05-23T04:23:04.181Z,99.57
2019-05-23T04:25:33.084Z,100.00
2019-05-23T04:28:02.715Z,99.67
2019-05-23T04:30:31.376Z,99.40
2019-05-23T04:33:00.393Z,98.55
2019-05-23T04:35:28.907Z,98.53
2019-05-23T04:37:57.774Z,97.91
2019-05-23T04:40:26.576Z,97.73
2019-05-23T04:42:55.080Z,97.02
2019-05-23T04:45:24.440Z,96.04
2019-05-23T04:47:52.958Z,95.48
2019-05-23T04:50:21.753Z,94.88
2019-05-23T04:52:50.717Z,94.74
2019-05-23T04:55:19.795Z,94.71
2019-05-23T04:57:48.517Z,93.72
2019-05-23T05:00:19.185Z,92.20
2019-05-23T05:02:47.991Z,91.65
2019-05-23T05:05:16.727Z,90.90
2019-05-23T05:07:45.428Z,90.60
2019-05-23T05:10:17.142Z,90.03
2019-05-23T05:12:46.178Z,90.14
2019-05-23T05:15:15.323Z,90.15
2019-05-23T05:17:44.685Z,90.17
2019-05-23T05:20:13.887Z,89.57
2019-05-23T05:22:42.659Z,89.78
2019-05-23T05:25:13.367Z,89.57
2019-05-23T05:27:42.243Z,89.03
2019-05-23T05:30:11.093Z,87.55
2019-05-23T05:32:44.680Z,86.92
2019-05-23T05:35:10.359Z,88.15
2019-05-23T05:37:38.961Z,88.81
2019-05-23T05:40:08.199Z,86.96
2019-05-23T05:42:37.878Z,86.80
2019-05-23T05:45:09.092Z,85.94
2019-05-23T05:47:38.202Z,84.39
2019-05-23T05:50:09.418Z,83.00
2019-05-23T05:52:39.027Z,81.40
2019-05-23T05:55:08.385Z,81.78
2019-05-23T05:57:37.200Z,80.78
2019-05-23T06:00:13.276Z,80.41
2019-05-23T06:02:42.075Z,80.56
2019-05-23T06:05:12.587Z,79.84
2019-05-23T06:07:43.665Z,79.91
2019-05-23T06:10:14.216Z,79.71
2019-05-23T06:12:43.064Z,79.13
2019-05-23T06:15:12.223Z,77.69
2019-05-23T06:17:40.854Z,77.73
2019-05-23T06:20:10.185Z,78.14
2019-05-23T06:22:40.655Z,78.96
2019-05-23T06:25:10.354Z,78.29
2019-05-23T06:27:40.285Z,78.70
2019-05-23T06:30:12.472Z,77.75
2019-05-23T06:32:41.399Z,78.04
2019-05-23T06:35:10.177Z,78.29
2019-05-23T06:37:39.761Z,77.49
2019-05-23T06:40:09.742Z,75.73
2019-05-23T06:42:38.617Z,77.90
2019-05-23T06:45:11.213Z,75.99
2019-05-23T06:47:40.479Z,75.57
2019-05-23T06:50:16.127Z,75.41
2019-05-23T06:52:45.026Z,75.56
2019-05-23T06:55:13.626Z,76.57
2019-05-23T06:57:42.239Z,76.70
2019-05-23T07:00:13.220Z,77.26
2019-05-23T07:02:41.977Z,78.17
2019-05-23T07:05:11.242Z,78.24
2019-05-23T07:07:41.470Z,77.45
2019-05-23T07:10:10.439Z,74.64
2019-05-23T07:12:39.370Z,75.75
2019-05-23T07:15:08.786Z,75.99
2019-05-23T07:17:38.197Z,75.98
2019-05-23T07:20:08.387Z,76.24
2019-05-23T07:22:37.025Z,76.37
2019-05-23T07:25:07.493Z,75.61
2019-05-23T07:27:36.628Z,75.07
2019-05-23T07:30:23.462Z,75.14
2019-05-23T07:32:52.264Z,74.78
2019-05-23T07:35:21.259Z,74.14
2019-05-23T07:37:49.786Z,73.55
2019-05-23T07:40:18.665Z,72.95
2019-05-23T07:42:47.565Z,71.61
2019-05-23T07:45:20.479Z,72.03
2019-05-23T07:47:49.188Z,71.71
2019-05-23T07:50:18.497Z,71.79
2019-05-23T07:52:47.319Z,70.93
2019-05-23T07:55:17.573Z,69.26
2019-05-23T07:57:46.081Z,69.92
2019-05-23T08:00:19.085Z,69.73
2019-05-23T08:02:50.858Z,68.56
2019-05-23T08:05:21.221Z,69.29
2019-05-23T08:07:50.124Z,67.79
2019-05-23T08:10:32.504Z,67.16
2019-05-23T08:12:48.918Z,67.33
2019-05-23T08:15:17.728Z,66.25
2019-05-23T08:17:46.502Z,66.83
2019-05-23T08:20:16.043Z,66.78
2019-05-23T08:22:45.565Z,65.93
2019-05-23T08:25:14.340Z,65.64
2019-05-23T08:27:43.441Z,65.89
2019-05-23T08:30:14.355Z,65.29
2019-05-23T08:32:42.927Z,64.97
2019-05-23T08:35:16.201Z,61.27
2019-05-23T08:37:42.466Z,60.27
2019-05-23T08:40:12.923Z,59.45
2019-05-23T08:42:41.494Z,58.79
2019-05-23T08:45:11.563Z,59.49
2019-05-23T08:47:40.075Z,57.78
2019-05-23T08:50:11.304Z,55.72
2019-05-23T08:52:40.195Z,59.37
2019-05-23T08:55:20.383Z,57.76
2019-05-23T08:57:49.226Z,57.84
2019-05-23T09:00:20.182Z,58.20
2019-05-23T09:02:49.302Z,56.62
2019-05-23T09:05:19.083Z,58.77
2019-05-23T09:07:48.164Z,54.60
2019-05-23T09:10:17.937Z,53.05
2019-05-23T09:12:47.842Z,52.87
2019-05-23T09:15:16.842Z,51.62
2019-05-23T09:17:53.089Z,53.14
2019-05-23T09:20:16.934Z,53.47
2019-05-23T09:22:45.837Z,53.11
2019-05-23T09:25:16.432Z,54.75
2019-05-23T09:27:45.539Z,53.45
2019-05-23T09:30:16.039Z,55.70
2019-05-23T09:32:44.843Z,54.37
2019-05-23T09:35:20.822Z,54.29
2019-05-23T09:37:45.003Z,56.24
2019-05-23T09:40:14.316Z,54.67
2019-05-23T09:42:43.030Z,54.01
2019-05-23T09:45:11.904Z,52.75
2019-05-23T09:47:40.693Z,53.24
2019-05-23T09:50:11.820Z,53.18
2019-05-23T09:52:40.411Z,53.87
2019-05-23T09:55:09.221Z,52.83
2019-05-23T09:57:37.857Z,50.94
2019-05-23T10:00:09.367Z,50.55
2019-05-23T10:02:37.966Z,48.75
2019-05-23T10:05:12.378Z,49.76
2019-05-23T10:07:40.984Z,50.26
2019-05-23T10:10:11.741Z,49.54
2019-05-23T10:12:40.310Z,50.68
2019-05-23T10:15:11.754Z,50.09
2019-05-23T10:17:40.321Z,51.37
2019-05-23T10:20:09.826Z,51.54
2019-05-23T10:22:38.266Z,51.66
2019-05-23T10:25:07.951Z,52.87
2019-05-23T10:27:36.430Z,52.43
2019-05-23T10:30:10.765Z,49.92
2019-05-23T10:32:39.293Z,52.27
2019-05-23T10:35:09.480Z,49.55
2019-05-23T10:37:38.227Z,48.53
2019-05-23T10:40:08.475Z,50.07
2019-05-23T10:42:38.093Z,50.28
2019-05-23T10:45:10.026Z,49.70
2019-05-23T10:47:38.906Z,49.25
2019-05-23T10:50:10.114Z,48.32
2019-05-23T10:52:38.836Z,48.54
2019-05-23T10:55:07.658Z,46.74
2019-05-23T10:57:36.579Z,47.74
2019-05-23T11:00:10.239Z,47.42
2019-05-23T11:02:39.718Z,45.67
2019-05-23T11:05:13.350Z,44.15
2019-05-23T11:07:41.378Z,42.95
2019-05-23T11:10:10.837Z,43.02
2019-05-23T11:12:39.566Z,41.27
2019-05-23T11:15:08.343Z,42.99
2019-05-23T11:17:37.301Z,43.74
2019-05-23T11:20:08.602Z,41.55
2019-05-23T11:22:37.126Z,42.49
2019-05-23T11:25:07.879Z,43.84
2019-05-23T11:27:37.104Z,45.04
2019-05-23T11:30:13.733Z,45.14
2019-05-23T11:32:42.285Z,45.98
2019-05-23T11:35:11.169Z,43.79
2019-05-23T11:37:41.867Z,42.26
2019-05-23T11:40:10.511Z,42.66
2019-05-23T11:42:39.127Z,44.27
2019-05-23T11:45:08.604Z,42.92
2019-05-23T11:47:37.579Z,44.27
2019-05-23T11:50:07.055Z,44.87
2019-05-23T11:52:35.640Z,43.28
2019-05-23T11:55:06.500Z,44.75
2019-05-23T11:57:37.760Z,42.33
2019-05-23T12:00:11.318Z,42.28
2019-05-23T12:02:44.092Z,40.82
2019-05-23T12:05:14.819Z,42.24
2019-05-23T12:07:43.344Z,43.46
2019-05-23T12:10:12.114Z,43.65
2019-05-23T12:12:40.713Z,42.29
2019-05-23T12:15:12.723Z,44.88
2019-05-23T12:17:41.876Z,42.62
2019-05-23T12:20:10.806Z,43.08
2019-05-23T12:22:40.162Z,41.33
2019-05-23T12:25:22.023Z,42.81
2019-05-23T12:27:40.287Z,42.24
2019-05-23T12:30:11.994Z,41.46
2019-05-23T12:32:40.687Z,43.45
2019-05-23T12:35:11.844Z,43.15
2019-05-23T12:37:39.838Z,41.06
2019-05-23T12:40:10.299Z,41.02
2019-05-23T12:42:38.742Z,41.65
2019-05-23T12:45:10.602Z,42.43
2019-05-23T12:47:40.773Z,42.48
2019-05-23T12:50:11.300Z,41.19
2019-05-23T12:52:39.864Z,42.44
2019-05-23T12:55:08.558Z,42.57
2019-05-23T12:57:37.300Z,42.96
2019-05-23T13:00:09.448Z,41.65
2019-05-23T13:02:38.228Z,41.31
2019-05-23T13:05:09.194Z,41.15
2019-05-23T13:07:37.743Z,42.57
2019-05-23T13:10:06.943Z,43.33
2019-05-23T13:12:35.424Z,42.30
2019-05-23T13:15:05.744Z,41.76
2019-05-23T13:17:34.290Z,41.09
2019-05-23T13:20:03.272Z,41.16
2019-05-23T13:22:32.104Z,41.06
2019-05-23T13:25:00.840Z,40.40
2019-05-23T13:27:29.571Z,39.75
2019-05-23T13:29:58.141Z,40.93
2019-05-23T13:32:26.922Z,41.73
2019-05-23T13:34:55.514Z,41.50
2019-05-23T13:37:23.967Z,42.65
2019-05-23T13:39:52.647Z,41.83
2019-05-23T13:42:24.391Z,42.33
2019-05-23T13:44:53.221Z,42.72
2019-05-23T13:47:21.933Z,44.42
2019-05-23T13:49:52.174Z,42.90
2019-05-23T13:52:20.783Z,41.70
2019-05-23T13:54:49.649Z,41.04
2019-05-23T13:57:18.333Z,40.67
2019-05-23T13:59:47.186Z,40.84
2019-05-23T14:02:15.667Z,40.48
2019-05-23T14:04:44.472Z,40.82
2019-05-23T14:07:13.208Z,41.31
2019-05-23T14:09:41.996Z,40.87
2019-05-23T14:12:26.000Z,42.01
2019-05-23T14:14:40.979Z,41.97
2019-05-23T14:17:11.292Z,41.23
2019-05-23T14:19:40.107Z,40.93
2019-05-23T14:22:08.630Z,41.53
2019-05-23T14:24:38.173Z,42.18
2019-05-23T14:27:08.426Z,42.52
2019-05-23T14:29:37.203Z,41.82
2019-05-23T14:32:22.697Z,41.45
2019-05-23T14:34:52.860Z,42.14
2019-05-23T14:37:34.745Z,42.21
2019-05-23T14:40:05.108Z,41.31
2019-05-23T14:42:53.608Z,41.65
2019-05-23T14:45:35.980Z,41.93
2019-05-23T14:48:15.502Z,42.13
2019-05-23T14:50:55.045Z,41.86
2019-05-23T14:53:25.472Z,41.83
2019-05-23T14:55:54.042Z,42.60
2019-05-23T14:58:22.921Z,42.29
2019-05-23T15:00:52.847Z,42.21
2019-05-23T15:03:21.624Z,42.53
2019-05-23T15:05:50.269Z,42.51
2019-05-23T15:08:19.140Z,41.00
2019-05-23T15:10:47.901Z,41.57
2019-05-23T15:13:16.696Z,41.85
2019-05-23T15:15:45.138Z,43.52
2019-05-23T15:18:13.571Z,42.16
2019-05-23T15:20:42.170Z,42.42
2019-05-23T15:23:10.609Z,40.37
2019-05-23T15:25:39.131Z,41.74
2019-05-23T15:28:07.941Z,40.66
2019-05-23T15:30:36.519Z,39.26
2019-05-23T15:33:05.365Z,41.02
2019-05-23T15:35:34.724Z,42.39
2019-05-23T15:38:03.419Z,40.93
2019-05-23T15:40:32.317Z,41.42
2019-05-23T15:43:00.777Z,41.31
2019-05-23T15:45:29.647Z,43.33
2019-05-23T15:47:58.232Z,41.81
2019-05-23T15:50:28.746Z,43.17
2019-05-23T15:53:04.827Z,40.72
2019-05-23T15:55:35.061Z,41.06
2019-05-23T15:58:05.593Z,42.43
2019-05-23T16:00:52.191Z,42.62
2019-05-23T16:03:40.543Z,42.59
2019-05-23T16:06:10.647Z,43.01
2019-05-23T16:08:39.276Z,41.84
2019-05-23T16:11:07.937Z,41.85
2019-05-23T16:13:36.392Z,42.08
2019-05-23T16:16:05.165Z,41.28
2019-05-23T16:18:33.863Z,42.24
2019-05-23T16:21:02.681Z,42.88
2019-05-23T16:23:31.190Z,42.57
2019-05-23T16:26:00.466Z,42.68
2019-05-23T16:28:28.940Z,42.70
2019-05-23T16:30:58.086Z,43.22
2019-05-23T16:33:26.721Z,43.20
2019-05-23T16:35:55.312Z,43.51
2019-05-23T16:38:23.751Z,42.31
2019-05-23T16:40:52.317Z,42.69
2019-05-23T16:43:20.903Z,42.67
2019-05-23T16:45:49.358Z,42.75
2019-05-23T16:48:18.060Z,42.85
2019-05-23T16:50:46.516Z,42.46
2019-05-23T16:53:15.216Z,43.50
2019-05-23T16:55:57.339Z,43.71
2019-05-23T16:58:45.485Z,43.39
2019-05-23T17:01:24.239Z,43.56
2019-05-23T17:03:57.339Z,43.22
2019-05-23T17:06:30.845Z,43.30
2019-05-23T17:09:15.734Z,44.19
2019-05-23T17:11:57.861Z,44.00
2019-05-23T17:14:37.218Z,44.54
2019-05-23T17:17:07.328Z,43.72
2019-05-23T17:19:43.724Z,43.32
2019-05-23T17:22:23.142Z,44.76
2019-05-23T17:24:55.952Z,43.94
2019-05-23T17:27:34.548Z,44.10
2019-05-23T17:30:17.546Z,43.72
2019-05-23T17:32:46.248Z,44.37
2019-05-23T17:35:14.748Z,43.57
2019-05-23T17:37:43.525Z,44.43
2019-05-23T17:40:24.355Z,44.93
2019-05-23T17:42:42.350Z,45.26
2019-05-23T17:45:13.994Z,45.21
2019-05-23T17:47:41.954Z,45.79
2019-05-23T17:50:10.814Z,45.65
2019-05-23T17:52:39.583Z,45.42
2019-05-23T17:55:08.615Z,45.99
2019-05-23T17:57:37.484Z,46.93
2019-05-23T18:00:08.804Z,45.97
2019-05-23T18:02:37.272Z,47.38
2019-05-23T18:05:07.354Z,45.74
2019-05-23T18:07:36.839Z,46.19
2019-05-23T18:10:07.591Z,46.29
2019-05-23T18:12:36.592Z,46.61
2019-05-23T18:15:08.617Z,46.94
2019-05-23T18:17:37.629Z,47.30
2019-05-23T18:20:08.165Z,47.98
2019-05-23T18:22:37.138Z,48.28
2019-05-23T18:25:08.388Z,48.60
2019-05-23T18:27:36.984Z,48.48
2019-05-23T18:30:08.495Z,48.79
2019-05-23T18:32:37.308Z,49.15
2019-05-23T18:35:10.442Z,51.21
2019-05-23T18:37:39.323Z,52.33
2019-05-23T18:40:08.564Z,54.13
2019-05-23T18:42:39.365Z,54.89
2019-05-23T18:45:09.463Z,55.68
2019-05-23T18:47:39.843Z,55.96
2019-05-23T18:50:08.958Z,58.89
2019-05-23T18:52:38.251Z,60.71
2019-05-23T18:55:07.715Z,61.22
2019-05-23T18:57:37.016Z,60.96
2019-05-23T19:00:08.178Z,61.83
2019-05-23T19:02:37.041Z,62.37
2019-05-23T19:05:10.075Z,63.58
2019-05-23T19:07:39.318Z,64.18
2019-05-23T19:10:09.155Z,64.43
2019-05-23T19:12:37.863Z,62.81
2019-05-23T19:15:09.491Z,63.42
2019-05-23T19:17:38.552Z,63.80
2019-05-23T19:20:08.976Z,64.13
2019-05-23T19:22:39.085Z,65.65
2019-05-23T19:25:10.052Z,65.56
2019-05-23T19:27:39.924Z,63.87
2019-05-23T19:30:10.916Z,63.80
2019-05-23T19:32:42.214Z,63.77
2019-05-23T19:35:10.894Z,64.31
2019-05-23T19:37:39.901Z,63.21
2019-05-23T19:40:09.530Z,63.85
2019-05-23T19:42:38.434Z,64.04
2019-05-23T19:45:08.242Z,63.83
2019-05-23T19:47:38.301Z,62.80
2019-05-23T19:50:08.439Z,65.38
2019-05-23T19:52:37.078Z,65.53
2019-05-23T19:55:07.670Z,66.01
2019-05-23T19:57:37.368Z,66.41
2019-05-23T20:00:11.148Z,68.28
2019-05-23T20:02:44.080Z,67.87
2019-05-23T20:05:29.813Z,67.88
2019-05-23T20:07:58.538Z,68.13
2019-05-23T20:10:28.335Z,68.23
2019-05-23T20:12:56.951Z,69.51
2019-05-23T20:15:25.848Z,69.34
2019-05-23T20:17:54.524Z,71.02
2019-05-23T20:20:23.156Z,70.63
2019-05-23T20:22:51.758Z,71.73
2019-05-23T20:25:20.749Z,72.58
2019-05-23T20:27:49.367Z,72.89
2019-05-23T20:30:38.137Z,73.02
2019-05-23T20:33:06.723Z,74.70
2019-05-23T20:35:35.262Z,75.46
2019-05-23T20:38:04.270Z,75.85
2019-05-23T20:40:32.956Z,73.92
2019-05-23T20:43:02.665Z,76.30
2019-05-23T20:45:31.320Z,76.98
2019-05-23T20:47:59.758Z,77.10
2019-05-23T20:50:28.196Z,76.59
2019-05-23T20:52:56.831Z,77.55
2019-05-23T20:55:25.724Z,78.45
2019-05-23T20:57:54.265Z,77.84
2019-05-23T21:00:34.218Z,78.96
2019-05-23T21:03:03.552Z,79.45
2019-05-23T21:05:32.503Z,78.87
2019-05-23T21:08:00.993Z,79.13
2019-05-23T21:10:44.987Z,78.74
2019-05-23T21:13:13.634Z,79.13
2019-05-23T21:15:42.141Z,80.26
2019-05-23T21:18:11.094Z,80.30
2019-05-23T21:20:39.833Z,79.41
2019-05-23T21:23:08.513Z,79.79
2019-05-23T21:25:38.669Z,81.40
2019-05-23T21:28:07.325Z,81.33
2019-05-23T21:30:36.003Z,81.77
2019-05-23T21:33:05.571Z,82.06
2019-05-23T21:35:34.319Z,81.95
2019-05-23T21:38:02.971Z,80.92
2019-05-23T21:40:37.361Z,81.98
2019-05-23T21:43:06.571Z,79.03
2019-05-23T21:45:35.316Z,80.31
2019-05-23T21:48:04.244Z,80.55
2019-05-23T21:50:33.062Z,81.57
2019-05-23T21:53:01.960Z,81.66
2019-05-23T21:55:43.812Z,82.18
2019-05-23T21:58:13.922Z,80.92
2019-05-23T22:01:08.349Z,82.70
2019-05-23T22:03:56.235Z,83.01
2019-05-23T22:06:29.207Z,83.77
2019-05-23T22:08:59.455Z,83.74
2019-05-23T22:11:28.064Z,84.83
2019-05-23T22:13:57.317Z,84.74
2019-05-23T22:16:26.387Z,85.29
2019-05-23T22:18:55.014Z,84.54
2019-05-23T22:21:23.630Z,84.13
2019-05-23T22:23:52.082Z,84.35
2019-05-23T22:26:20.652Z,84.65
2019-05-23T22:28:49.122Z,84.67
2019-05-23T22:31:18.099Z,85.55
2019-05-23T22:33:54.288Z,84.95
2019-05-23T22:36:23.996Z,85.24
2019-05-23T22:38:52.519Z,84.88
2019-05-23T22:41:21.114Z,85.96
2019-05-23T22:43:49.623Z,86.76
2019-05-23T22:46:20.046Z,86.05
2019-05-23T22:48:48.587Z,86.90
2019-05-23T22:51:17.170Z,86.55
2019-05-23T22:53:45.692Z,86.53
2019-05-23T22:56:14.330Z,86.47
2019-05-23T22:58:43.009Z,87.26
2019-05-23T23:01:11.512Z,87.51
2019-05-23T23:03:39.974Z,87.93
2019-05-23T23:06:08.475Z,88.40
2019-05-23T23:08:37.285Z,88.13
2019-05-23T23:11:05.922Z,88.85
2019-05-23T23:13:38.535Z,88.58
2019-05-23T23:16:05.180Z,88.62
2019-05-23T23:18:33.618Z,89.31
2019-05-23T23:21:02.128Z,89.53
2019-05-23T23:23:30.571Z,89.36
2019-05-23T23:25:59.115Z,89.21
2019-05-23T23:28:27.553Z,88.94
2019-05-23T23:30:56.064Z,89.67
2019-05-23T23:33:24.709Z,90.61
2019-05-23T23:35:53.695Z,90.05
2019-05-23T23:38:22.129Z,89.77
2019-05-23T23:40:50.603Z,89.46
2019-05-23T23:43:19.047Z,88.04
2019-05-23T23:46:05.396Z,89.31
2019-05-23T23:48:52.105Z,90.13
2019-05-23T23:51:38.265Z,90.34
2019-05-23T23:54:24.181Z,89.82
2019-05-23T23:57:10.720Z,89.66
2019-05-23T23:59:38.502Z,88.70
